Time;durP1;ratioP1;P1;durP2;ratioP2;P2;SDS_P1;SDS_P2;PMS_P1;PMS_P2;Temp;Humidity;BMP_temperature;BMP_pressure;BME280_temperature;BME280_humidity;BME280_pressure;Samples;Min_cycle;Max_cycle;Signal;HPM_P1;HPM_P2
2022/01/23 00:00:51;;;;;;;14.93;8.52;;;;;;;;;;5063215;28;20079;-80
2022/01/23 00:03:20;;;;;;;16.08;8.30;;;;;;;;;;5060562;28;20048;-80
2022/01/23 00:06:00;;;;;;;;;;;;;;;;;;;;;
2022/01/23 00:08:33;;;;;;;15.90;8.05;;;;;;;;;;5061230;28;20108;-79
2022/01/23 00:11:01;;;;;;;16.83;8.85;;;;;;;;;;5043522;28;20035;-79
2022/01/23 00:17:12;;;;;;;15.25;7.95;;;;;;;;;;5060776;28;20021;-80
2022/01/23 00:19:19;;;;;;;15.30;7.25;;;;;;;;;;5061241;28;20449;-79
2022/01/23 00:21:51;;;;;;;13.55;7.32;;;;;;;;;;5062586;28;20021;-79
2022/01/23 00:32:34;;;;;;;12.30;6.47;;;;;;;;;;5061621;28;20036;-80
2022/01/23 00:35:02;;;;;;;11.85;6.72;;;;;;;;;;5043024;28;20430;-80
2022/01/23 00:37:27;;;;;;;13.05;7.22;;;;;;;;;;5042266;28;20032;-80
2022/01/23 00:39:53;;;;;;;14.05;7.22;;;;;;;;;;5059846;28;20017;-81
2022/01/23 00:42:18;;;;;;;13.98;8.20;;;;;;;;;;5041887;28;20025;-80
2022/01/23 00:44:51;;;;;;;12.95;6.68;;;;;;;;;;5060310;28;20528;-79
2022/01/23 00:47:19;;;;;;;12.05;7.10;;;;;;;;;;5060928;28;20025;-81
2022/01/23 00:49:47;;;;;;;12.73;7.50;;;;;;;;;;5043615;28;20064;-80
2022/01/23 00:52:17;;;;;;;13.32;7.40;;;;;;;;;;5060295;28;20029;-80
2022/01/23 00:54:42;;;;;;;15.75;7.50;;;;;;;;;;5042694;28;20390;-80
2022/01/23 00:57:07;;;;;;;14.85;7.55;;;;;;;;;;5042921;28;20035;-80
2022/01/23 00:59:36;;;;;;;12.48;7.05;;;;;;;;;;5062015;28;20032;-80
2022/01/23 01:02:03;;;;;;;12.32;7.32;;;;;;;;;;5061598;28;20025;-80
2022/01/23 01:04:29;;;;;;;9.45;6.03;;;;;;;;;;5045441;28;20047;-80
2022/01/23 01:06:54;;;;;;;13.90;6.22;;;;;;;;;;5062641;28;20025;-81
2022/01/23 01:09:24;;;;;;;9.63;6.07;;;;;;;;;;5062269;28;20032;-80
2022/01/23 01:14:38;;;;;;;11.45;6.50;;;;;;;;;;5062288;28;20040;-80
2022/01/23 01:17:18;;;;;;;12.38;6.50;;;;;;;;;;5061311;28;20028;-80
2022/01/23 01:31:22;;;;;;;13.65;7.65;;;;;;;;;;4999852;28;20018;-81
2022/01/23 01:34:07;;;;;;;14.95;7.35;;;;;;;;;;4998644;28;20026;-80
2022/01/23 01:39:28;;;;;;;15.40;8.27;;;;;;;;;;5055378;28;20028;-78
2022/01/23 01:41:55;;;;;;;15.55;8.65;;;;;;;;;;5040745;28;20051;-79
2022/01/23 01:44:30;;;;;;;16.83;8.95;;;;;;;;;;5059116;28;20029;-81
2022/01/23 01:46:55;;;;;;;15.40;8.63;;;;;;;;;;5060313;28;20017;-79
2022/01/23 01:49:32;;;;;;;12.38;7.50;;;;;;;;;;5059752;28;20142;-81
2022/01/23 01:52:00;;;;;;;12.15;6.68;;;;;;;;;;5041926;28;20432;-79
2022/01/23 01:54:31;;;;;;;10.57;6.50;;;;;;;;;;5059689;28;20037;-79
2022/01/23 01:57:07;;;;;;;13.68;7.60;;;;;;;;;;5059666;28;20502;-79
2022/01/23 02:00:00;;;;;;;12.77;7.55;;;;;;;;;;5060135;28;20104;-79
2022/01/23 02:10:45;;;;;;;8.23;5.13;;;;;;;;;;5063505;28;19928;-79
2022/01/23 02:13:16;;;;;;;7.65;4.97;;;;;;;;;;5063826;28;20397;-79
2022/01/23 02:22:25;;;;;;;8.70;5.38;;;;;;;;;;5063449;28;20028;-80
2022/01/23 02:54:24;;;;;;;8.15;5.05;;;;;;;;;;5063443;28;20098;-80
2022/01/23 02:56:53;;;;;;;7.68;4.80;;;;;;;;;;5045216;28;20107;-80
2022/01/23 02:59:23;;;;;;;7.28;5.03;;;;;;;;;;5063417;28;20032;-80
2022/01/23 03:02:25;;;;;;;7.75;4.88;;;;;;;;;;5063148;28;20512;-81
2022/01/23 03:04:52;;;;;;;6.68;4.47;;;;;;;;;;5059245;28;20029;-80
2022/01/23 03:07:47;;;;;;;9.48;4.97;;;;;;;;;;5058696;28;20021;-80
2022/01/23 03:26:13;;;;;;;6.45;4.63;;;;;;;;;;5060339;28;20394;-80
2022/01/23 03:31:40;;;;;;;7.32;4.82;;;;;;;;;;5060247;28;20036;-80
2022/01/23 03:34:06;;;;;;;6.63;4.50;;;;;;;;;;5041331;28;20017;-80
2022/01/23 03:36:32;;;;;;;9.13;4.93;;;;;;;;;;5060141;28;20021;-79
2022/01/23 03:38:57;;;;;;;6.68;4.38;;;;;;;;;;5058722;28;20032;-80
2022/01/23 03:41:23;;;;;;;6.32;4.60;;;;;;;;;;5059184;28;20436;-79
2022/01/23 03:43:48;;;;;;;7.07;4.68;;;;;;;;;;5060935;28;20474;-79
2022/01/23 03:51:42;;;;;;;5.93;4.43;;;;;;;;;;5060961;28;20111;-79
2022/01/23 03:54:07;;;;;;;7.90;4.32;;;;;;;;;;5043383;28;20441;-80
2022/01/23 03:56:32;;;;;;;10.95;4.95;;;;;;;;;;5045287;28;20040;-79
2022/01/23 03:58:58;;;;;;;8.05;4.80;;;;;;;;;;5063890;28;20027;-80
2022/01/23 04:01:23;;;;;;;6.90;5.03;;;;;;;;;;5062307;28;20547;-78
2022/01/23 04:03:49;;;;;;;9.75;4.88;;;;;;;;;;5063097;28;20028;-79
2022/01/23 04:06:14;;;;;;;8.15;4.95;;;;;;;;;;5063629;28;20033;-79
2022/01/23 04:08:40;;;;;;;7.40;5.00;;;;;;;;;;5064270;28;20457;-80
2022/01/23 04:11:05;;;;;;;7.18;5.13;;;;;;;;;;5045219;28;20047;-80
2022/01/23 04:13:43;;;;;;;7.00;4.10;;;;;;;;;;5062788;28;20497;-80
2022/01/23 04:19:09;;;;;;;8.38;5.03;;;;;;;;;;5065160;28;20025;-81
2022/01/23 04:32:48;;;;;;;7.18;4.88;;;;;;;;;;5065134;28;20070;-80
2022/01/23 04:35:17;;;;;;;7.75;5.05;;;;;;;;;;5064081;28;20036;-80
2022/01/23 04:46:06;;;;;;;8.30;5.18;;;;;;;;;;5064411;28;20032;-80
2022/01/23 04:59:36;;;;;;;7.32;5.22;;;;;;;;;;5065188;28;20067;-80
2022/01/23 05:04:36;;;;;;;8.25;5.47;;;;;;;;;;5064932;28;20108;-80
2022/01/23 05:07:06;;;;;;;8.77;5.72;;;;;;;;;;5064158;28;20025;-80
2022/01/23 05:09:32;;;;;;;7.65;5.10;;;;;;;;;;5064197;28;20045;-79
2022/01/23 05:12:02;;;;;;;8.63;5.13;;;;;;;;;;5045534;28;20041;-80
2022/01/23 05:14:48;;;;;;;8.70;5.40;;;;;;;;;;5064506;28;20055;-80
2022/01/23 05:17:15;;;;;;;10.90;5.45;;;;;;;;;;5064092;28;20028;-80
2022/01/23 05:19:41;;;;;;;8.80;5.72;;;;;;;;;;5046659;28;20032;-81
2022/01/23 05:22:31;;;;;;;9.27;5.45;;;;;;;;;;5064657;28;20103;-81
2022/01/23 05:25:02;;;;;;;7.28;5.00;;;;;;;;;;5065375;28;20028;-80
2022/01/23 05:27:29;;;;;;;10.30;5.40;;;;;;;;;;5065926;28;20021;-81
2022/01/23 05:29:57;;;;;;;9.65;5.32;;;;;;;;;;5048126;28;20017;-81
2022/01/23 05:32:24;;;;;;;8.30;5.55;;;;;;;;;;5065855;28;20029;-80
2022/01/23 05:34:50;;;;;;;9.18;5.78;;;;;;;;;;5066148;28;20032;-80
2022/01/23 05:37:18;;;;;;;8.93;5.43;;;;;;;;;;5063796;28;20418;-80
2022/01/23 05:39:43;;;;;;;7.45;4.95;;;;;;;;;;5048170;28;20135;-81
2022/01/23 05:42:09;;;;;;;10.00;5.85;;;;;;;;;;5050468;28;20029;-79
2022/01/23 05:44:37;;;;;;;8.50;5.47;;;;;;;;;;5068042;28;20039;-80
2022/01/23 05:47:04;;;;;;;7.43;5.32;;;;;;;;;;5068694;28;20025;-81
2022/01/23 05:49:29;;;;;;;8.43;5.63;;;;;;;;;;5051003;28;20056;-80
2022/01/23 05:51:55;;;;;;;10.98;6.05;;;;;;;;;;5068378;28;20020;-80
2022/01/23 05:54:20;;;;;;;8.82;5.88;;;;;;;;;;5048802;28;20048;-81
2022/01/23 05:56:46;;;;;;;8.20;5.15;;;;;;;;;;5068061;28;20052;-81
2022/01/23 05:59:12;;;;;;;9.73;5.50;;;;;;;;;;5048842;28;20032;-80
2022/01/23 06:01:37;;;;;;;8.38;5.32;;;;;;;;;;5048080;28;20025;-79
2022/01/23 06:04:02;;;;;;;10.02;5.28;;;;;;;;;;5048637;28;20021;-78
2022/01/23 06:06:28;;;;;;;8.13;4.47;;;;;;;;;;5066796;28;20071;-80
2022/01/23 06:08:53;;;;;;;7.78;4.90;;;;;;;;;;5048699;28;20025;-81
2022/01/23 06:11:18;;;;;;;7.50;5.00;;;;;;;;;;5067010;28;20029;-80
2022/01/23 06:13:43;;;;;;;8.15;4.88;;;;;;;;;;5048831;28;20029;-79
2022/01/23 06:16:09;;;;;;;7.85;4.68;;;;;;;;;;5049529;28;20064;-80
2022/01/23 06:18:36;;;;;;;8.65;5.00;;;;;;;;;;5067214;28;20033;-79
2022/01/23 06:21:02;;;;;;;6.95;4.60;;;;;;;;;;5066822;28;20029;-80
2022/01/23 06:23:30;;;;;;;8.55;5.05;;;;;;;;;;5066895;28;20486;-80
2022/01/23 06:25:56;;;;;;;8.43;4.30;;;;;;;;;;5067083;28;20029;-81
2022/01/23 06:28:55;;;;;;;8.32;4.28;;;;;;;;;;5049071;28;20024;-81
2022/01/23 06:31:20;;;;;;;7.15;4.30;;;;;;;;;;5058620;28;20044;-79
2022/01/23 06:33:45;;;;;;;6.35;4.60;;;;;;;;;;5066607;28;20035;-80
2022/01/23 06:36:10;;;;;;;5.88;3.85;;;;;;;;;;5066817;28;20128;-80
2022/01/23 06:38:36;;;;;;;5.25;3.88;;;;;;;;;;5066545;28;20082;-80
2022/01/23 06:41:01;;;;;;;7.03;4.45;;;;;;;;;;5048403;28;20029;-80
2022/01/23 06:43:27;;;;;;;6.15;4.28;;;;;;;;;;5066524;28;20028;-80
2022/01/23 06:45:52;;;;;;;7.68;4.85;;;;;;;;;;5066452;28;20021;-80
2022/01/23 06:48:17;;;;;;;7.90;4.25;;;;;;;;;;5048735;28;20060;-80
2022/01/23 06:50:43;;;;;;;7.35;4.45;;;;;;;;;;5067010;28;20386;-80
2022/01/23 06:53:08;;;;;;;7.28;4.18;;;;;;;;;;5066084;28;20029;-80
2022/01/23 06:55:33;;;;;;;5.95;4.43;;;;;;;;;;5066574;28;20028;-80
2022/01/23 06:57:58;;;;;;;6.43;4.18;;;;;;;;;;5049038;28;20474;-80
2022/01/23 07:00:23;;;;;;;6.80;4.43;;;;;;;;;;5067238;28;20025;-80
2022/01/23 07:02:49;;;;;;;6.47;3.65;;;;;;;;;;5067897;28;20062;-78
2022/01/23 07:05:14;;;;;;;5.90;4.45;;;;;;;;;;5048043;28;20021;-79
2022/01/23 07:07:39;;;;;;;6.72;4.57;;;;;;;;;;5049163;28;20040;-80
2022/01/23 07:10:05;;;;;;;6.82;4.25;;;;;;;;;;5067079;28;20088;-79
2022/01/23 07:12:30;;;;;;;5.47;4.00;;;;;;;;;;5067320;28;20033;-80
2022/01/23 07:14:56;;;;;;;6.55;4.32;;;;;;;;;;5050443;28;20029;-80
2022/01/23 07:17:21;;;;;;;6.72;4.47;;;;;;;;;;5051155;28;20063;-80
2022/01/23 07:19:47;;;;;;;6.40;4.65;;;;;;;;;;5051779;28;20085;-79
2022/01/23 07:22:12;;;;;;;6.03;4.20;;;;;;;;;;5068104;28;20051;-79
2022/01/23 07:24:37;;;;;;;8.60;4.70;;;;;;;;;;5067547;28;20025;-81
2022/01/23 07:27:12;;;;;;;6.57;4.40;;;;;;;;;;5066251;28;20070;-80
2022/01/23 07:29:37;;;;;;;12.73;4.53;;;;;;;;;;5049622;28;20052;-80
2022/01/23 07:32:08;;;;;;;9.18;4.75;;;;;;;;;;5069113;28;20091;-81
2022/01/23 07:34:33;;;;;;;7.93;4.47;;;;;;;;;;5069235;28;20017;-80
2022/01/23 07:36:58;;;;;;;7.15;4.18;;;;;;;;;;5051865;28;20112;-80
2022/01/23 07:39:24;;;;;;;7.40;4.68;;;;;;;;;;5064368;28;20047;-80
2022/01/23 07:41:49;;;;;;;7.22;4.13;;;;;;;;;;5046965;28;20537;-80
2022/01/23 07:44:14;;;;;;;9.45;4.95;;;;;;;;;;5065896;28;20025;-81
2022/01/23 07:46:40;;;;;;;7.13;4.78;;;;;;;;;;5049805;28;20032;-80
2022/01/23 07:49:05;;;;;;;6.15;4.25;;;;;;;;;;5048667;28;20012;-80
2022/01/23 07:51:30;;;;;;;7.03;4.43;;;;;;;;;;5047632;28;20035;-80
2022/01/23 07:53:55;;;;;;;5.72;4.05;;;;;;;;;;5067091;28;20394;-80
2022/01/23 07:56:24;;;;;;;8.15;5.10;;;;;;;;;;5067054;28;20029;-80
2022/01/23 07:58:49;;;;;;;7.40;4.78;;;;;;;;;;5049286;28;20029;-80
2022/01/23 08:01:14;;;;;;;8.40;4.80;;;;;;;;;;5048567;28;20390;-80
2022/01/23 08:03:39;;;;;;;7.55;5.28;;;;;;;;;;5067134;28;20123;-80
2022/01/23 08:06:05;;;;;;;7.35;4.78;;;;;;;;;;5067202;28;20025;-80
2022/01/23 08:08:31;;;;;;;7.20;4.93;;;;;;;;;;5067171;28;20028;-80
2022/01/23 08:10:56;;;;;;;7.32;5.10;;;;;;;;;;5048110;28;20029;-82
2022/01/23 08:13:22;;;;;;;9.82;5.05;;;;;;;;;;5067512;28;20559;-80
2022/01/23 08:15:47;;;;;;;7.32;4.70;;;;;;;;;;5066524;28;20017;-81
2022/01/23 08:18:15;;;;;;;6.90;4.93;;;;;;;;;;5066228;28;20049;-80
2022/01/23 08:20:40;;;;;;;7.10;4.85;;;;;;;;;;5066844;28;20035;-80
2022/01/23 08:23:06;;;;;;;7.90;5.35;;;;;;;;;;5066782;28;20033;-81
2022/01/23 08:25:32;;;;;;;7.97;5.32;;;;;;;;;;5067312;28;20021;-80
2022/01/23 08:27:58;;;;;;;9.45;5.47;;;;;;;;;;5066452;28;20389;-80
2022/01/23 08:30:24;;;;;;;8.35;5.10;;;;;;;;;;5067868;28;20048;-80
2022/01/23 08:32:50;;;;;;;8.32;5.47;;;;;;;;;;5066895;28;20028;-80
2022/01/23 08:35:15;;;;;;;7.20;5.20;;;;;;;;;;5048063;28;20040;-80
2022/01/23 08:37:41;;;;;;;9.65;5.57;;;;;;;;;;5065182;28;20029;-81
2022/01/23 08:40:17;;;;;;;8.45;5.50;;;;;;;;;;5066640;28;20104;-81
2022/01/23 08:42:42;;;;;;;9.38;5.85;;;;;;;;;;5048647;28;20028;-81
2022/01/23 08:45:08;;;;;;;8.23;5.50;;;;;;;;;;5065851;28;20479;-80
2022/01/23 08:47:33;;;;;;;7.90;5.22;;;;;;;;;;5066427;28;20154;-80
2022/01/23 08:49:59;;;;;;;10.35;5.88;;;;;;;;;;5046541;28;20494;-81
2022/01/23 08:52:24;;;;;;;7.90;5.78;;;;;;;;;;5046532;28;20024;-81
2022/01/23 08:54:51;;;;;;;8.43;5.72;;;;;;;;;;5064062;28;20055;-80
2022/01/23 08:57:20;;;;;;;9.27;5.68;;;;;;;;;;5064273;28;20036;-81
2022/01/23 08:59:46;;;;;;;9.52;6.00;;;;;;;;;;5063521;28;20076;-79
2022/01/23 09:02:12;;;;;;;9.15;6.22;;;;;;;;;;5063714;28;20029;-79
2022/01/23 09:04:37;;;;;;;8.48;5.15;;;;;;;;;;5063342;28;20089;-80
2022/01/23 09:07:03;;;;;;;8.60;4.70;;;;;;;;;;5063342;28;20029;-79
2022/01/23 09:09:31;;;;;;;8.80;5.30;;;;;;;;;;5065019;28;20448;-80
2022/01/23 09:12:21;;;;;;;9.20;4.80;;;;;;;;;;5046342;28;20025;-81
2022/01/23 09:14:46;;;;;;;7.38;5.22;;;;;;;;;;5065215;28;20028;-80
2022/01/23 09:17:12;;;;;;;6.15;4.35;;;;;;;;;;5063290;28;20029;-82
2022/01/23 09:19:39;;;;;;;7.35;4.75;;;;;;;;;;5064296;28;20554;-79
2022/01/23 09:22:04;;;;;;;9.25;5.30;;;;;;;;;;5047033;28;20021;-79
2022/01/23 09:24:30;;;;;;;7.53;4.95;;;;;;;;;;5064527;28;20501;-79
2022/01/23 09:27:02;;;;;;;6.65;4.63;;;;;;;;;;5063881;28;20048;-79
2022/01/23 09:29:32;;;;;;;5.45;3.95;;;;;;;;;;5063371;28;20031;-79
2022/01/23 09:31:59;;;;;;;7.13;4.50;;;;;;;;;;5045103;28;20029;-80
2022/01/23 09:34:27;;;;;;;5.10;3.78;;;;;;;;;;5046807;28;20024;-81
2022/01/23 09:36:55;;;;;;;7.93;4.63;;;;;;;;;;5062227;28;20494;-80
2022/01/23 09:39:21;;;;;;;7.22;4.93;;;;;;;;;;5066379;28;20048;-79
2022/01/23 09:41:58;;;;;;;7.50;4.75;;;;;;;;;;5048183;28;20482;-79
2022/01/23 09:44:24;;;;;;;8.20;4.88;;;;;;;;;;5047912;28;20108;-84
2022/01/23 09:58:28;;;;;;;6.28;4.03;;;;;;;;;;4943567;29;20043;-82
2022/01/23 10:01:23;;;;;;;6.07;4.70;;;;;;;;;;5028382;28;20053;-81
2022/01/23 10:04:52;;;;;;;;;;;;;;;;;;;;;
2022/01/23 10:08:16;;;;;;;6.28;4.05;;;;;;;;;;5041980;28;20034;-80
2022/01/23 10:11:24;;;;;;;7.22;4.25;;;;;;;;;;5043603;28;20105;-80
2022/01/23 10:14:19;;;;;;;;;;;;;;;;;;;;;
2022/01/23 10:19:42;;;;;;;6.80;4.35;;;;;;;;;;5071300;28;20079;-81
2022/01/23 10:22:41;;;;;;;5.72;3.80;;;;;;;;;;5064135;28;20033;-80
2022/01/23 10:25:16;;;;;;;5.72;3.90;;;;;;;;;;5058818;28;20409;-81
2022/01/23 10:28:35;;;;;;;5.65;3.92;;;;;;;;;;5086456;28;20074;-81
2022/01/23 10:31:46;;;;;;;5.15;3.78;;;;;;;;;;5024759;28;20100;-82
2022/01/23 10:42:10;;;;;;;;;;;;;;;;;;;;;
2022/01/23 10:48:51;;;;;;;5.28;3.65;;;;;;;;;;5046954;28;20039;-81
2022/01/23 10:52:03;;;;;;;6.28;3.03;;;;;;;;;;5068739;28;20052;-80
2022/01/23 10:54:55;;;;;;;4.15;3.03;;;;;;;;;;5049699;28;20169;-81
2022/01/23 10:58:08;;;;;;;;;;;;;;;;;;;;;
2022/01/23 11:01:28;;;;;;;;;;;;;;;;;;;;;
2022/01/23 11:04:45;;;;;;;;;;;;;;;;;;;;;
2022/01/23 11:07:21;;;;;;;3.50;2.72;;;;;;;;;;5084693;28;20105;-81
2022/01/23 11:17:23;;;;;;;4.85;3.50;;;;;;;;;;4967786;28;20093;-81
2022/01/23 11:20:16;;;;;;;5.18;3.45;;;;;;;;;;4982361;28;20047;-80
2022/01/23 11:23:56;;;;;;;6.60;3.60;;;;;;;;;;5064613;28;20063;-82
2022/01/23 11:36:23;;;;;;;5.07;3.40;;;;;;;;;;4988106;28;20029;-80
2022/01/23 11:40:03;;;;;;;;;;;;;;;;;;;;;
2022/01/23 11:59:34;;;;;;;3.90;2.80;;;;;;;;;;5020363;28;20037;-83
2022/01/23 12:02:33;;;;;;;4.80;3.22;;;;;;;;;;4946613;29;20035;-81
2022/01/23 12:05:24;;;;;;;4.03;2.75;;;;;;;;;;4928185;29;20031;-81
2022/01/23 12:12:20;;;;;;;3.72;2.72;;;;;;;;;;5000537;28;20088;-80
2022/01/23 12:19:00;;;;;;;4.50;3.47;;;;;;;;;;5024710;28;20119;-83
2022/01/23 12:22:11;;;;;;;;;;;;;;;;;;;;;
2022/01/23 12:25:01;;;;;;;;;;;;;;;;;;;;;
2022/01/23 12:27:46;;;;;;;4.78;2.90;;;;;;;;;;4996155;28;20041;-82
2022/01/23 12:30:23;;;;;;;;;;;;;;;;;;4980668;28;20072;-81
2022/01/23 12:36:42;;;;;;;;;;;;;;;;;;;;;
2022/01/23 12:42:20;;;;;;;3.75;2.70;;;;;;;;;;4979921;28;20061;-81
2022/01/23 12:45:04;;;;;;;5.43;2.70;;;;;;;;;;5021215;28;20038;-79
2022/01/23 12:47:34;;;;;;;3.83;2.72;;;;;;;;;;5004060;28;20073;-80
2022/01/23 12:50:48;;;;;;;3.25;2.42;;;;;;;;;;5004309;28;20545;-81
2022/01/23 12:53:34;;;;;;;3.88;2.65;;;;;;;;;;4999259;28;20061;-81
2022/01/23 12:56:12;;;;;;;2.60;2.20;;;;;;;;;;5004930;28;20029;-80
2022/01/23 12:59:08;;;;;;;3.30;2.70;;;;;;;;;;5005966;28;20037;-82
2022/01/23 13:01:43;;;;;;;2.92;2.15;;;;;;;;;;5004701;28;20034;-80
2022/01/23 13:07:41;;;;;;;3.55;2.58;;;;;;;;;;5023609;28;20033;-80
2022/01/23 13:13:12;;;;;;;3.92;2.50;;;;;;;;;;5021584;28;20461;-80
2022/01/23 13:30:14;;;;;;;4.45;3.10;;;;;;;;;;5022540;28;20241;-80
2022/01/23 13:32:44;;;;;;;4.22;2.63;;;;;;;;;;5006199;28;20038;-80
2022/01/23 13:35:14;;;;;;;3.78;2.60;;;;;;;;;;5007692;28;20041;-80
2022/01/23 13:37:43;;;;;;;5.32;3.17;;;;;;;;;;5007073;28;20116;-82
2022/01/23 13:40:20;;;;;;;3.00;2.40;;;;;;;;;;5007023;28;20022;-80
2022/01/23 13:59:26;;;;;;;4.03;2.28;;;;;;;;;;5025631;28;20053;-80
2022/01/23 14:04:28;;;;;;;3.25;2.40;;;;;;;;;;5028359;28;20395;-80
2022/01/23 14:06:54;;;;;;;4.38;2.70;;;;;;;;;;5011225;28;20049;-81
2022/01/23 14:09:21;;;;;;;3.22;2.60;;;;;;;;;;5012102;28;20034;-81
2022/01/23 14:11:47;;;;;;;3.33;2.53;;;;;;;;;;5010819;28;20554;-80
2022/01/23 14:14:19;;;;;;;3.95;2.72;;;;;;;;;;5011416;28;20455;-79
2022/01/23 14:16:51;;;;;;;5.28;2.70;;;;;;;;;;5011633;28;20575;-80
2022/01/23 14:19:25;;;;;;;5.10;2.60;;;;;;;;;;5009783;28;20080;-80
2022/01/23 14:21:59;;;;;;;;;;;;;;;;;;5009423;28;20022;-80
2022/01/23 14:24:28;;;;;;;4.45;2.67;;;;;;;;;;5010066;28;19916;-81
2022/01/23 14:27:06;;;;;;;4.68;2.75;;;;;;;;;;5009262;28;20062;-81
2022/01/23 14:29:34;;;;;;;4.85;3.00;;;;;;;;;;5027021;28;20391;-80
2022/01/23 14:32:11;;;;;;;3.60;2.90;;;;;;;;;;5009937;28;20026;-81
2022/01/23 14:34:37;;;;;;;3.97;2.83;;;;;;;;;;5009585;28;20034;-81
2022/01/23 14:37:06;;;;;;;5.72;2.85;;;;;;;;;;5009279;28;20068;-80
2022/01/23 14:39:32;;;;;;;3.67;2.60;;;;;;;;;;5025318;28;20048;-79
2022/01/23 14:42:10;;;;;;;4.95;2.90;;;;;;;;;;5028365;28;20030;-81
2022/01/23 14:44:38;;;;;;;3.67;2.67;;;;;;;;;;5028336;28;20029;-80
2022/01/23 14:47:03;;;;;;;3.63;2.75;;;;;;;;;;5007951;28;20081;-81
2022/01/23 14:49:31;;;;;;;6.72;3.05;;;;;;;;;;5007988;28;20057;-80
2022/01/23 14:52:01;;;;;;;4.90;3.20;;;;;;;;;;5009137;28;20484;-81
2022/01/23 14:54:30;;;;;;;6.43;2.90;;;;;;;;;;5008930;28;20022;-80
2022/01/23 14:57:01;;;;;;;4.18;3.10;;;;;;;;;;5007476;28;20026;-81
2022/01/23 14:59:29;;;;;;;4.18;3.22;;;;;;;;;;5009126;28;20030;-80
2022/01/23 15:01:54;;;;;;;4.43;3.20;;;;;;;;;;5026963;28;20022;-81
2022/01/23 15:04:22;;;;;;;5.32;3.22;;;;;;;;;;5009306;28;20090;-81
2022/01/23 15:06:51;;;;;;;6.15;3.47;;;;;;;;;;5009761;28;20415;-81
2022/01/23 15:09:19;;;;;;;5.85;3.90;;;;;;;;;;5008928;28;20030;-80
2022/01/23 15:11:46;;;;;;;4.65;3.22;;;;;;;;;;5008002;28;20441;-81
2022/01/23 15:14:18;;;;;;;4.53;3.30;;;;;;;;;;5027518;28;20104;-78
2022/01/23 15:16:44;;;;;;;5.50;3.22;;;;;;;;;;5008989;28;20085;-81
2022/01/23 15:19:10;;;;;;;4.90;3.17;;;;;;;;;;5009075;28;20045;-80
2022/01/23 15:21:35;;;;;;;4.18;3.08;;;;;;;;;;5008900;28;20033;-80
2022/01/23 15:24:02;;;;;;;7.18;3.35;;;;;;;;;;5008632;28;20112;-80
2022/01/23 15:26:33;;;;;;;4.78;3.38;;;;;;;;;;5009183;28;20080;-80
2022/01/23 15:28:59;;;;;;;5.18;3.40;;;;;;;;;;5009494;28;20085;-81
2022/01/23 15:31:24;;;;;;;5.00;3.53;;;;;;;;;;5009236;28;20084;-81
2022/01/23 15:33:51;;;;;;;5.90;3.47;;;;;;;;;;5026725;28;20109;-79
2022/01/23 15:36:25;;;;;;;4.38;3.38;;;;;;;;;;5025942;28;20486;-81
2022/01/23 15:38:51;;;;;;;6.10;4.10;;;;;;;;;;5009738;28;20038;-81
2022/01/23 15:41:16;;;;;;;7.30;3.63;;;;;;;;;;5008951;28;20117;-79
2022/01/23 15:43:42;;;;;;;7.43;3.92;;;;;;;;;;5009296;28;20034;-80
2022/01/23 15:46:07;;;;;;;5.28;3.45;;;;;;;;;;5004929;28;20033;-81
2022/01/23 15:48:35;;;;;;;7.35;3.95;;;;;;;;;;4999677;28;20479;-79
2022/01/23 15:51:02;;;;;;;10.95;4.22;;;;;;;;;;4999811;28;20022;-80
2022/01/23 15:53:28;;;;;;;8.32;4.40;;;;;;;;;;5001932;28;20026;-80
2022/01/23 15:56:08;;;;;;;9.00;3.83;;;;;;;;;;5004455;28;20041;-79
2022/01/23 16:07:56;;;;;;;5.72;3.95;;;;;;;;;;5026617;28;20033;-80
2022/01/23 16:10:59;;;;;;;5.65;3.88;;;;;;;;;;5008835;28;20034;-80
2022/01/23 16:13:49;;;;;;;;;;;;;;;;;;;;;
2022/01/23 16:16:14;;;;;;;6.30;4.28;;;;;;;;;;5023764;28;20096;-81
2022/01/23 16:18:41;;;;;;;7.07;4.35;;;;;;;;;;5002079;28;20053;-81
2022/01/23 16:21:11;;;;;;;6.72;3.95;;;;;;;;;;5019404;28;20030;-79
2022/01/23 16:23:37;;;;;;;7.15;4.03;;;;;;;;;;5020775;28;20471;-80
2022/01/23 16:26:05;;;;;;;6.88;4.30;;;;;;;;;;5002683;28;20025;-81
2022/01/23 16:28:34;;;;;;;6.88;3.88;;;;;;;;;;5002040;28;20391;-80
2022/01/23 16:30:59;;;;;;;7.95;4.25;;;;;;;;;;5003276;28;20030;-81
2022/01/23 16:33:28;;;;;;;7.43;4.05;;;;;;;;;;5020682;28;20033;-80
2022/01/23 16:35:56;;;;;;;8.02;4.63;;;;;;;;;;5021956;28;20387;-80
2022/01/23 16:38:29;;;;;;;7.07;4.15;;;;;;;;;;5004445;28;20037;-80
2022/01/23 16:40:55;;;;;;;6.93;4.57;;;;;;;;;;5002820;28;20101;-79
2022/01/23 16:43:27;;;;;;;6.82;4.03;;;;;;;;;;5002761;28;20317;-80
2022/01/23 16:45:53;;;;;;;8.25;4.55;;;;;;;;;;5020726;28;20033;-80
2022/01/23 16:48:21;;;;;;;6.82;4.30;;;;;;;;;;5021711;28;20026;-80
2022/01/23 16:50:47;;;;;;;7.10;4.25;;;;;;;;;;5001816;28;20148;-79
2022/01/23 16:53:25;;;;;;;6.35;4.57;;;;;;;;;;5002828;28;20049;-80
2022/01/23 16:55:56;;;;;;;6.38;4.15;;;;;;;;;;5020994;28;20080;-80
2022/01/23 16:58:32;;;;;;;;;;;;;;;;;;;;;
2022/01/23 17:00:58;;;;;;;8.30;4.80;;;;;;;;;;5019936;28;20112;-81
2022/01/23 17:03:27;;;;;;;10.00;5.60;;;;;;;;;;5018506;28;20057;-81
2022/01/23 17:05:55;;;;;;;7.93;4.95;;;;;;;;;;5019178;28;20483;-81
2022/01/23 17:08:24;;;;;;;7.95;4.85;;;;;;;;;;5019255;28;20033;-81
2022/01/23 17:10:52;;;;;;;9.30;4.80;;;;;;;;;;5017147;28;20026;-81
2022/01/23 17:13:18;;;;;;;9.65;5.03;;;;;;;;;;5018305;28;20025;-82
2022/01/23 17:15:49;;;;;;;8.75;5.03;;;;;;;;;;5001096;28;20037;-80
2022/01/23 17:18:20;;;;;;;7.00;4.68;;;;;;;;;;5018681;28;20033;-81
2022/01/23 17:20:51;;;;;;;7.57;4.63;;;;;;;;;;5019462;28;20021;-82
2022/01/23 17:23:24;;;;;;;7.30;4.53;;;;;;;;;;5019305;28;20036;-81
2022/01/23 17:25:49;;;;;;;6.77;4.40;;;;;;;;;;5019550;28;20057;-81
2022/01/23 17:28:25;;;;;;;7.45;4.85;;;;;;;;;;5019255;28;20045;-81
2022/01/23 17:30:52;;;;;;;7.28;4.95;;;;;;;;;;5002062;28;20038;-81
2022/01/23 17:33:20;;;;;;;6.85;4.60;;;;;;;;;;5018420;28;20026;-82
2022/01/23 17:35:45;;;;;;;8.77;4.60;;;;;;;;;;5024556;28;20006;-83
2022/01/23 17:38:14;;;;;;;9.23;4.68;;;;;;;;;;5004083;28;20029;-81
2022/01/23 17:40:42;;;;;;;6.50;4.75;;;;;;;;;;5021860;28;20085;-82
2022/01/23 17:43:14;;;;;;;8.18;5.00;;;;;;;;;;5020921;28;20030;-79
2022/01/23 17:45:49;;;;;;;7.50;4.82;;;;;;;;;;5020670;28;20028;-80
2022/01/23 17:48:48;;;;;;;7.30;4.45;;;;;;;;;;5019800;28;20040;-81
2022/01/23 17:51:19;;;;;;;9.63;4.72;;;;;;;;;;5004156;28;20022;-81
2022/01/23 17:53:50;;;;;;;9.80;5.20;;;;;;;;;;5022774;28;20053;-81
2022/01/23 17:56:24;;;;;;;9.52;4.97;;;;;;;;;;5022254;28;20025;-82
2022/01/23 17:59:08;;;;;;;9.13;5.40;;;;;;;;;;5004688;28;20022;-79
2022/01/23 18:05:32;;;;;;;9.43;4.90;;;;;;;;;;4977390;28;20481;-81
2022/01/23 18:22:48;;;;;;;;;;;;;;;;;;;;;
2022/01/23 18:36:22;;;;;;;9.50;5.25;;;;;;;;;;4952450;28;20033;-80
2022/01/23 18:39:22;;;;;;;9.75;5.10;;;;;;;;;;5019947;28;20041;-80
2022/01/23 18:48:36;;;;;;;8.73;4.95;;;;;;;;;;5019008;28;20041;-81
2022/01/23 18:55:22;;;;;;;9.30;5.25;;;;;;;;;;4969576;28;20030;-81
2022/01/23 18:58:14;;;;;;;9.32;5.18;;;;;;;;;;4949787;28;20802;-81
2022/01/23 19:01:22;;;;;;;8.27;5.28;;;;;;;;;;5001584;28;20207;-81
2022/01/23 19:07:31;;;;;;;8.48;5.20;;;;;;;;;;5019119;28;20033;-81
2022/01/23 19:14:11;;;;;;;10.90;5.40;;;;;;;;;;5015378;28;20025;-79
2022/01/23 19:27:04;;;;;;;8.85;5.38;;;;;;;;;;4960957;28;20043;-80
2022/01/23 19:29:41;;;;;;;8.98;5.15;;;;;;;;;;5018582;28;20495;-80
2022/01/23 19:32:28;;;;;;;;;;;;;;;;;;;;;
2022/01/23 19:35:52;;;;;;;9.35;5.70;;;;;;;;;;5016275;28;20132;-81
2022/01/23 19:38:40;;;;;;;8.35;5.22;;;;;;;;;;5018225;28;20573;-81
2022/01/23 19:47:10;;;;;;;9.05;5.32;;;;;;;;;;5018952;28;20022;-80
2022/01/23 19:49:55;;;;;;;10.32;5.60;;;;;;;;;;5001366;28;20120;-79
2022/01/23 19:55:21;;;;;;;9.13;5.75;;;;;;;;;;4996652;28;20041;-81
2022/01/23 20:00:55;;;;;;;8.98;5.50;;;;;;;;;;5010871;28;20075;-81
2022/01/23 20:03:25;;;;;;;9.13;5.47;;;;;;;;;;5000561;28;20038;-80
2022/01/23 20:06:20;;;;;;;9.82;5.60;;;;;;;;;;5018895;28;20176;-80
2022/01/23 20:09:09;;;;;;;7.43;4.95;;;;;;;;;;5018398;28;20044;-81
2022/01/23 20:14:11;;;;;;;7.70;5.32;;;;;;;;;;5018426;28;20022;-80
2022/01/23 20:19:45;;;;;;;7.82;4.97;;;;;;;;;;5004893;28;20113;-81
2022/01/23 20:22:27;;;;;;;9.63;6.13;;;;;;;;;;5000480;28;20028;-82
2022/01/23 20:25:00;;;;;;;8.27;5.13;;;;;;;;;;5018053;28;20083;-81
2022/01/23 20:27:36;;;;;;;8.95;5.55;;;;;;;;;;5017960;28;20026;-81
2022/01/23 20:30:05;;;;;;;12.15;5.63;;;;;;;;;;5018105;28;20034;-78
2022/01/23 20:32:38;;;;;;;9.38;5.57;;;;;;;;;;5017159;28;20480;-80
2022/01/23 20:35:12;;;;;;;8.98;6.07;;;;;;;;;;4999565;28;20033;-80
2022/01/23 20:37:53;;;;;;;;;;;;;;;;;;;;;
2022/01/23 20:40:32;;;;;;;;;;;;;;;;;;;;;
2022/01/23 20:43:07;;;;;;;9.30;5.97;;;;;;;;;;5017493;28;20654;-80
2022/01/23 20:45:32;;;;;;;11.57;5.97;;;;;;;;;;5000366;28;20069;-81
2022/01/23 20:47:57;;;;;;;10.57;6.00;;;;;;;;;;5017945;28;20033;-82
2022/01/23 20:50:46;;;;;;;9.95;6.82;;;;;;;;;;5017835;28;20024;-81
2022/01/23 20:53:48;;;;;;;10.35;6.20;;;;;;;;;;5017385;28;20479;-82
2022/01/23 20:56:09;;;;;;;12.23;6.25;;;;;;;;;;5017116;28;20026;-80
2022/01/23 20:58:39;;;;;;;13.95;6.32;;;;;;;;;;5016394;28;20030;-80
2022/01/23 21:01:15;;;;;;;;;;;;;;;;;;;;;
2022/01/23 21:04:09;;;;;;;10.32;6.32;;;;;;;;;;5016332;28;20112;-80
2022/01/23 21:07:19;;;;;;;10.20;6.40;;;;;;;;;;5015731;28;20050;-82